sensor_id;sensor_type;location;lat;lon;timestamp;P1;durP1;ratioP1;P2;durP2;ratioP2
63398;SDS011;49533;-34.520;150.798;2022-10-31T00:00:51;0.60;;;0.60;;
63398;SDS011;49533;-34.520;150.798;2022-10-31T00:03:18;2.30;;;1.00;;
63398;SDS011;49533;-34.520;150.798;2022-10-31T00:05:47;3.92;;;0.70;;
63398;SDS011;49533;-34.520;150.798;2022-10-31T00:08:16;2.40;;;0.70;;
63398;SDS011;49533;-34.520;150.798;2022-10-31T00:10:44;2.28;;;0.85;;
63398;SDS011;49533;-34.520;150.798;2022-10-31T00:13:12;3.80;;;0.70;;
63398;SDS011;49533;-34.520;150.798;2022-10-31T00:15:40;1.23;;;0.68;;
63398;SDS011;49533;-34.520;150.798;2022-10-31T00:18:08;2.25;;;0.68;;
63398;SDS011;49533;-34.520;150.798;2022-10-31T00:20:36;1.48;;;0.95;;
63398;SDS011;49533;-34.520;150.798;2022-10-31T00:23:03;2.15;;;1.15;;
63398;SDS011;49533;-34.520;150.798;2022-10-31T00:25:33;5.60;;;1.02;;
63398;SDS011;49533;-34.520;150.798;2022-10-31T00:28:03;3.80;;;0.93;;
63398;SDS011;49533;-34.520;150.798;2022-10-31T00:30:31;2.67;;;1.33;;
63398;SDS011;49533;-34.520;150.798;2022-10-31T00:32:58;1.73;;;0.85;;
63398;SDS011;49533;-34.520;150.798;2022-10-31T00:35:25;2.97;;;1.23;;
63398;SDS011;49533;-34.520;150.798;2022-10-31T00:37:53;4.18;;;0.73;;
63398;SDS011;49533;-34.520;150.798;2022-10-31T00:40:20;3.33;;;0.60;;
63398;SDS011;49533;-34.520;150.798;2022-10-31T00:42:47;4.07;;;0.82;;
63398;SDS011;49533;-34.520;150.798;2022-10-31T00:45:14;1.38;;;0.85;;
63398;SDS011;49533;-34.520;150.798;2022-10-31T00:47:42;9.25;;;1.40;;
63398;SDS011;49533;-34.520;150.798;2022-10-31T00:50:09;48.55;;;4.05;;
63398;SDS011;49533;-34.520;150.798;2022-10-31T00:52:36;33.20;;;3.50;;
63398;SDS011;49533;-34.520;150.798;2022-10-31T00:55:03;16.63;;;2.05;;
63398;SDS011;49533;-34.520;150.798;2022-10-31T00:57:30;9.65;;;1.20;;
63398;SDS011;49533;-34.520;150.798;2022-10-31T00:59:57;10.50;;;1.10;;
63398;SDS011;49533;-34.520;150.798;2022-10-31T01:02:24;1.55;;;0.85;;
63398;SDS011;49533;-34.520;150.798;2022-10-31T01:04:51;3.80;;;1.08;;
63398;SDS011;49533;-34.520;150.798;2022-10-31T01:07:18;1.92;;;0.80;;
63398;SDS011;49533;-34.520;150.798;2022-10-31T01:09:46;2.00;;;0.93;;
63398;SDS011;49533;-34.520;150.798;2022-10-31T01:12:13;2.28;;;0.85;;
63398;SDS011;49533;-34.520;150.798;2022-10-31T01:14:44;3.28;;;0.95;;
63398;SDS011;49533;-34.520;150.798;2022-10-31T01:17:12;1.85;;;1.23;;
63398;SDS011;49533;-34.520;150.798;2022-10-31T01:19:39;2.03;;;1.10;;
63398;SDS011;49533;-34.520;150.798;2022-10-31T01:22:06;2.80;;;0.77;;
63398;SDS011;49533;-34.520;150.798;2022-10-31T01:24:33;1.58;;;0.90;;
63398;SDS011;49533;-34.520;150.798;2022-10-31T01:27:01;0.85;;;0.77;;
63398;SDS011;49533;-34.520;150.798;2022-10-31T01:29:28;1.58;;;0.98;;
63398;SDS011;49533;-34.520;150.798;2022-10-31T01:31:55;6.10;;;1.25;;
63398;SDS011;49533;-34.520;150.798;2022-10-31T01:34:22;1.10;;;0.85;;
63398;SDS011;49533;-34.520;150.798;2022-10-31T01:36:49;1.83;;;1.00;;
63398;SDS011;49533;-34.520;150.798;2022-10-31T01:39:17;2.20;;;1.25;;
63398;SDS011;49533;-34.520;150.798;2022-10-31T01:41:46;3.67;;;0.93;;
63398;SDS011;49533;-34.520;150.798;2022-10-31T01:47:17;3.13;;;1.02;;
63398;SDS011;49533;-34.520;150.798;2022-10-31T01:49:51;2.30;;;1.00;;
63398;SDS011;49533;-34.520;150.798;2022-10-31T01:52:25;2.17;;;0.90;;
63398;SDS011;49533;-34.520;150.798;2022-10-31T01:55:01;1.77;;;0.80;;
63398;SDS011;49533;-34.520;150.798;2022-10-31T01:57:38;1.77;;;1.00;;
63398;SDS011;49533;-34.520;150.798;2022-10-31T02:00:08;2.58;;;0.85;;
63398;SDS011;49533;-34.520;150.798;2022-10-31T02:02:37;2.80;;;1.08;;
63398;SDS011;49533;-34.520;150.798;2022-10-31T02:05:05;1.27;;;0.80;;
63398;SDS011;49533;-34.520;150.798;2022-10-31T02:07:38;1.25;;;0.80;;
63398;SDS011;49533;-34.520;150.798;2022-10-31T02:10:10;0.68;;;0.68;;
63398;SDS011;49533;-34.520;150.798;2022-10-31T02:12:37;1.17;;;0.80;;
63398;SDS011;49533;-34.520;150.798;2022-10-31T02:15:05;2.33;;;0.90;;
63398;SDS011;49533;-34.520;150.798;2022-10-31T02:17:33;4.85;;;1.20;;
63398;SDS011;49533;-34.520;150.798;2022-10-31T02:20:08;1.83;;;1.15;;
63398;SDS011;49533;-34.520;150.798;2022-10-31T02:23:05;1.60;;;1.13;;
63398;SDS011;49533;-34.520;150.798;2022-10-31T02:25:54;2.20;;;0.90;;
63398;SDS011;49533;-34.520;150.798;2022-10-31T02:31:38;1.52;;;0.80;;
63398;SDS011;49533;-34.520;150.798;2022-10-31T02:34:20;0.93;;;0.88;;
63398;SDS011;49533;-34.520;150.798;2022-10-31T02:37:01;0.70;;;0.63;;
63398;SDS011;49533;-34.520;150.798;2022-10-31T02:39:51;1.83;;;0.80;;
63398;SDS011;49533;-34.520;150.798;2022-10-31T02:42:34;0.63;;;0.40;;
63398;SDS011;49533;-34.520;150.798;2022-10-31T02:45:12;1.35;;;0.50;;
63398;SDS011;49533;-34.520;150.798;2022-10-31T02:47:46;0.73;;;0.52;;
63398;SDS011;49533;-34.520;150.798;2022-10-31T02:50:19;2.75;;;0.47;;
63398;SDS011;49533;-34.520;150.798;2022-10-31T02:52:53;1.98;;;0.38;;
63398;SDS011;49533;-34.520;150.798;2022-10-31T02:58:14;0.43;;;0.40;;
63398;SDS011;49533;-34.520;150.798;2022-10-31T03:00:57;1.60;;;0.50;;
63398;SDS011;49533;-34.520;150.798;2022-10-31T03:03:53;1.00;;;0.55;;
63398;SDS011;49533;-34.520;150.798;2022-10-31T03:06:35;0.45;;;0.20;;
63398;SDS011;49533;-34.520;150.798;2022-10-31T03:09:22;1.30;;;0.30;;
63398;SDS011;49533;-34.520;150.798;2022-10-31T03:11:58;0.30;;;0.30;;
63398;SDS011;49533;-34.520;150.798;2022-10-31T03:14:41;0.40;;;0.20;;
63398;SDS011;49533;-34.520;150.798;2022-10-31T03:17:21;0.30;;;0.30;;
63398;SDS011;49533;-34.520;150.798;2022-10-31T03:19:57;1.17;;;0.52;;
63398;SDS011;49533;-34.520;150.798;2022-10-31T03:22:28;0.50;;;0.30;;
63398;SDS011;49533;-34.520;150.798;2022-10-31T03:24:59;0.35;;;0.35;;
63398;SDS011;49533;-34.520;150.798;2022-10-31T03:27:29;0.43;;;0.35;;
63398;SDS011;49533;-34.520;150.798;2022-10-31T03:30:00;0.40;;;0.40;;
63398;SDS011;49533;-34.520;150.798;2022-10-31T03:32:34;0.55;;;0.32;;
63398;SDS011;49533;-34.520;150.798;2022-10-31T03:35:07;0.30;;;0.30;;
63398;SDS011;49533;-34.520;150.798;2022-10-31T03:37:36;0.40;;;0.20;;
63398;SDS011;49533;-34.520;150.798;2022-10-31T03:40:06;0.73;;;0.32;;
63398;SDS011;49533;-34.520;150.798;2022-10-31T03:42:38;3.58;;;0.35;;
63398;SDS011;49533;-34.520;150.798;2022-10-31T03:45:11;0.20;;;0.20;;
63398;SDS011;49533;-34.520;150.798;2022-10-31T03:47:41;0.67;;;0.30;;
63398;SDS011;49533;-34.520;150.798;2022-10-31T03:50:10;1.45;;;0.30;;
63398;SDS011;49533;-34.520;150.798;2022-10-31T03:52:42;0.30;;;0.30;;
63398;SDS011;49533;-34.520;150.798;2022-10-31T03:55:17;0.40;;;0.28;;
63398;SDS011;49533;-34.520;150.798;2022-10-31T03:57:54;0.45;;;0.32;;
63398;SDS011;49533;-34.520;150.798;2022-10-31T04:00:26;0.77;;;0.30;;
63398;SDS011;49533;-34.520;150.798;2022-10-31T04:02:55;0.30;;;0.30;;
63398;SDS011;49533;-34.520;150.798;2022-10-31T04:05:33;0.52;;;0.35;;
63398;SDS011;49533;-34.520;150.798;2022-10-31T04:08:03;0.30;;;0.30;;
63398;SDS011;49533;-34.520;150.798;2022-10-31T04:10:35;0.30;;;0.30;;
63398;SDS011;49533;-34.520;150.798;2022-10-31T04:13:05;0.40;;;0.32;;
63398;SDS011;49533;-34.520;150.798;2022-10-31T04:15:38;0.40;;;0.40;;
63398;SDS011;49533;-34.520;150.798;2022-10-31T04:18:07;0.10;;;0.10;;
63398;SDS011;49533;-34.520;150.798;2022-10-31T04:20:36;0.20;;;0.20;;
63398;SDS011;49533;-34.520;150.798;2022-10-31T04:23:04;1.45;;;0.30;;
63398;SDS011;49533;-34.520;150.798;2022-10-31T04:25:41;1.55;;;0.50;;
63398;SDS011;49533;-34.520;150.798;2022-10-31T04:28:08;0.73;;;0.43;;
63398;SDS011;49533;-34.520;150.798;2022-10-31T04:30:35;0.30;;;0.30;;
63398;SDS011;49533;-34.520;150.798;2022-10-31T04:33:02;0.38;;;0.38;;
63398;SDS011;49533;-34.520;150.798;2022-10-31T04:35:29;0.45;;;0.30;;
63398;SDS011;49533;-34.520;150.798;2022-10-31T04:37:56;0.38;;;0.38;;
63398;SDS011;49533;-34.520;150.798;2022-10-31T04:40:40;0.63;;;0.38;;
63398;SDS011;49533;-34.520;150.798;2022-10-31T04:43:07;0.68;;;0.40;;
63398;SDS011;49533;-34.520;150.798;2022-10-31T04:45:34;0.50;;;0.17;;
63398;SDS011;49533;-34.520;150.798;2022-10-31T04:48:01;0.50;;;0.50;;
63398;SDS011;49533;-34.520;150.798;2022-10-31T04:50:29;0.30;;;0.30;;
63398;SDS011;49533;-34.520;150.798;2022-10-31T04:52:56;0.28;;;0.28;;
63398;SDS011;49533;-34.520;150.798;2022-10-31T04:55:23;0.30;;;0.30;;
63398;SDS011;49533;-34.520;150.798;2022-10-31T04:57:50;0.30;;;0.30;;
63398;SDS011;49533;-34.520;150.798;2022-10-31T05:00:18;1.00;;;0.40;;
63398;SDS011;49533;-34.520;150.798;2022-10-31T05:02:47;3.03;;;0.57;;
63398;SDS011;49533;-34.520;150.798;2022-10-31T05:05:17;0.47;;;0.47;;
63398;SDS011;49533;-34.520;150.798;2022-10-31T05:07:46;0.77;;;0.35;;
63398;SDS011;49533;-34.520;150.798;2022-10-31T05:10:17;0.20;;;0.20;;
63398;SDS011;49533;-34.520;150.798;2022-10-31T05:12:47;3.38;;;0.50;;
63398;SDS011;49533;-34.520;150.798;2022-10-31T05:15:22;0.98;;;0.52;;
63398;SDS011;49533;-34.520;150.798;2022-10-31T05:17:51;1.08;;;0.30;;
63398;SDS011;49533;-34.520;150.798;2022-10-31T05:20:20;0.45;;;0.28;;
63398;SDS011;49533;-34.520;150.798;2022-10-31T05:22:50;0.57;;;0.30;;
63398;SDS011;49533;-34.520;150.798;2022-10-31T05:25:18;0.10;;;0.10;;
63398;SDS011;49533;-34.520;150.798;2022-10-31T05:27:47;0.17;;;0.17;;
63398;SDS011;49533;-34.520;150.798;2022-10-31T05:30:16;0.20;;;0.20;;
63398;SDS011;49533;-34.520;150.798;2022-10-31T05:32:47;0.10;;;0.10;;
63398;SDS011;49533;-34.520;150.798;2022-10-31T05:35:16;1.75;;;0.20;;
63398;SDS011;49533;-34.520;150.798;2022-10-31T05:37:45;0.10;;;0.10;;
63398;SDS011;49533;-34.520;150.798;2022-10-31T05:40:13;0.38;;;0.10;;
63398;SDS011;49533;-34.520;150.798;2022-10-31T05:42:45;0.10;;;0.10;;
63398;SDS011;49533;-34.520;150.798;2022-10-31T05:45:14;0.68;;;0.20;;
63398;SDS011;49533;-34.520;150.798;2022-10-31T05:47:49;0.63;;;0.10;;
63398;SDS011;49533;-34.520;150.798;2022-10-31T05:50:17;0.35;;;0.13;;
63398;SDS011;49533;-34.520;150.798;2022-10-31T05:52:44;0.17;;;0.17;;
63398;SDS011;49533;-34.520;150.798;2022-10-31T05:55:11;0.35;;;0.20;;
63398;SDS011;49533;-34.520;150.798;2022-10-31T05:57:38;0.30;;;0.10;;
63398;SDS011;49533;-34.520;150.798;2022-10-31T06:00:06;0.10;;;0.10;;
63398;SDS011;49533;-34.520;150.798;2022-10-31T06:02:33;0.30;;;0.20;;
63398;SDS011;49533;-34.520;150.798;2022-10-31T06:05:00;0.22;;;0.20;;
63398;SDS011;49533;-34.520;150.798;2022-10-31T06:07:31;0.20;;;0.20;;
63398;SDS011;49533;-34.520;150.798;2022-10-31T06:10:00;0.22;;;0.20;;
63398;SDS011;49533;-34.520;150.798;2022-10-31T06:12:28;0.40;;;0.20;;
63398;SDS011;49533;-34.520;150.798;2022-10-31T06:14:55;0.20;;;0.20;;
63398;SDS011;49533;-34.520;150.798;2022-10-31T06:17:22;0.47;;;0.38;;
63398;SDS011;49533;-34.520;150.798;2022-10-31T06:19:49;0.22;;;0.20;;
63398;SDS011;49533;-34.520;150.798;2022-10-31T06:22:16;0.50;;;0.30;;
63398;SDS011;49533;-34.520;150.798;2022-10-31T06:24:43;0.20;;;0.20;;
63398;SDS011;49533;-34.520;150.798;2022-10-31T06:27:10;0.30;;;0.30;;
63398;SDS011;49533;-34.520;150.798;2022-10-31T06:29:37;0.40;;;0.30;;
63398;SDS011;49533;-34.520;150.798;2022-10-31T06:32:04;0.90;;;0.40;;
63398;SDS011;49533;-34.520;150.798;2022-10-31T06:34:31;0.73;;;0.38;;
63398;SDS011;49533;-34.520;150.798;2022-10-31T06:36:58;0.20;;;0.15;;
63398;SDS011;49533;-34.520;150.798;2022-10-31T06:39:25;0.10;;;0.10;;
63398;SDS011;49533;-34.520;150.798;2022-10-31T06:41:52;0.35;;;0.20;;
63398;SDS011;49533;-34.520;150.798;2022-10-31T06:44:19;0.45;;;0.10;;
63398;SDS011;49533;-34.520;150.798;2022-10-31T06:46:47;2.15;;;0.30;;
63398;SDS011;49533;-34.520;150.798;2022-10-31T06:49:14;0.20;;;0.20;;
63398;SDS011;49533;-34.520;150.798;2022-10-31T06:51:41;0.50;;;0.50;;
63398;SDS011;49533;-34.520;150.798;2022-10-31T06:54:09;1.25;;;0.40;;
63398;SDS011;49533;-34.520;150.798;2022-10-31T06:56:36;0.77;;;0.30;;
63398;SDS011;49533;-34.520;150.798;2022-10-31T06:59:03;0.32;;;0.32;;
63398;SDS011;49533;-34.520;150.798;2022-10-31T07:01:30;0.32;;;0.20;;
63398;SDS011;49533;-34.520;150.798;2022-10-31T07:03:58;0.40;;;0.20;;
63398;SDS011;49533;-34.520;150.798;2022-10-31T07:06:25;2.60;;;0.40;;
63398;SDS011;49533;-34.520;150.798;2022-10-31T07:08:52;1.00;;;0.60;;
63398;SDS011;49533;-34.520;150.798;2022-10-31T07:11:19;1.02;;;0.30;;
63398;SDS011;49533;-34.520;150.798;2022-10-31T07:13:46;0.28;;;0.22;;
63398;SDS011;49533;-34.520;150.798;2022-10-31T07:16:13;0.55;;;0.32;;
63398;SDS011;49533;-34.520;150.798;2022-10-31T07:18:40;1.00;;;0.50;;
63398;SDS011;49533;-34.520;150.798;2022-10-31T07:21:07;0.85;;;0.70;;
63398;SDS011;49533;-34.520;150.798;2022-10-31T07:23:34;0.47;;;0.38;;
63398;SDS011;49533;-34.520;150.798;2022-10-31T07:26:01;0.77;;;0.50;;
63398;SDS011;49533;-34.520;150.798;2022-10-31T07:28:28;1.23;;;0.57;;
63398;SDS011;49533;-34.520;150.798;2022-10-31T07:30:56;0.43;;;0.43;;
63398;SDS011;49533;-34.520;150.798;2022-10-31T07:33:24;0.50;;;0.47;;
63398;SDS011;49533;-34.520;150.798;2022-10-31T07:35:52;0.75;;;0.63;;
63398;SDS011;49533;-34.520;150.798;2022-10-31T07:38:19;0.63;;;0.47;;
63398;SDS011;49533;-34.520;150.798;2022-10-31T07:40:49;0.60;;;0.40;;
63398;SDS011;49533;-34.520;150.798;2022-10-31T07:43:18;1.75;;;0.60;;
63398;SDS011;49533;-34.520;150.798;2022-10-31T07:45:51;1.73;;;0.68;;
63398;SDS011;49533;-34.520;150.798;2022-10-31T07:48:18;0.98;;;0.52;;
63398;SDS011;49533;-34.520;150.798;2022-10-31T07:50:46;0.80;;;0.55;;
63398;SDS011;49533;-34.520;150.798;2022-10-31T07:53:13;0.50;;;0.50;;
63398;SDS011;49533;-34.520;150.798;2022-10-31T07:55:42;1.02;;;0.50;;
63398;SDS011;49533;-34.520;150.798;2022-10-31T07:58:11;0.52;;;0.52;;
63398;SDS011;49533;-34.520;150.798;2022-10-31T08:00:40;0.52;;;0.52;;
63398;SDS011;49533;-34.520;150.798;2022-10-31T08:03:10;0.50;;;0.50;;
63398;SDS011;49533;-34.520;150.798;2022-10-31T08:05:39;1.15;;;0.57;;
63398;SDS011;49533;-34.520;150.798;2022-10-31T08:08:07;1.15;;;0.80;;
63398;SDS011;49533;-34.520;150.798;2022-10-31T08:10:35;1.75;;;0.80;;
63398;SDS011;49533;-34.520;150.798;2022-10-31T08:13:05;0.80;;;0.60;;
63398;SDS011;49533;-34.520;150.798;2022-10-31T08:18:05;0.70;;;0.40;;
63398;SDS011;49533;-34.520;150.798;2022-10-31T08:20:36;0.73;;;0.50;;
63398;SDS011;49533;-34.520;150.798;2022-10-31T08:23:04;1.95;;;0.82;;
63398;SDS011;49533;-34.520;150.798;2022-10-31T08:25:32;1.33;;;0.95;;
63398;SDS011;49533;-34.520;150.798;2022-10-31T08:28:00;0.60;;;0.55;;
63398;SDS011;49533;-34.520;150.798;2022-10-31T08:30:29;0.70;;;0.70;;
63398;SDS011;49533;-34.520;150.798;2022-10-31T08:32:58;0.70;;;0.65;;
63398;SDS011;49533;-34.520;150.798;2022-10-31T08:35:27;1.02;;;0.80;;
63398;SDS011;49533;-34.520;150.798;2022-10-31T08:37:55;2.28;;;0.73;;
63398;SDS011;49533;-34.520;150.798;2022-10-31T08:40:23;0.80;;;0.80;;
63398;SDS011;49533;-34.520;150.798;2022-10-31T08:42:56;0.57;;;0.57;;
63398;SDS011;49533;-34.520;150.798;2022-10-31T08:45:31;0.60;;;0.55;;
63398;SDS011;49533;-34.520;150.798;2022-10-31T08:47:59;1.00;;;0.90;;
63398;SDS011;49533;-34.520;150.798;2022-10-31T08:50:28;3.25;;;0.80;;
63398;SDS011;49533;-34.520;150.798;2022-10-31T08:53:02;1.73;;;0.93;;
63398;SDS011;49533;-34.520;150.798;2022-10-31T08:55:30;1.38;;;1.23;;
63398;SDS011;49533;-34.520;150.798;2022-10-31T08:57:59;1.23;;;1.10;;
63398;SDS011;49533;-34.520;150.798;2022-10-31T09:00:26;1.40;;;0.93;;
63398;SDS011;49533;-34.520;150.798;2022-10-31T09:02:55;2.03;;;1.20;;
63398;SDS011;49533;-34.520;150.798;2022-10-31T09:05:23;1.00;;;0.82;;
63398;SDS011;49533;-34.520;150.798;2022-10-31T09:07:54;0.80;;;0.80;;
63398;SDS011;49533;-34.520;150.798;2022-10-31T09:10:23;2.75;;;1.10;;
63398;SDS011;49533;-34.520;150.798;2022-10-31T09:12:56;1.00;;;1.00;;
63398;SDS011;49533;-34.520;150.798;2022-10-31T09:15:23;2.08;;;1.02;;
63398;SDS011;49533;-34.520;150.798;2022-10-31T09:17:51;3.50;;;1.50;;
63398;SDS011;49533;-34.520;150.798;2022-10-31T09:20:19;1.55;;;1.35;;
63398;SDS011;49533;-34.520;150.798;2022-10-31T09:22:46;1.20;;;1.00;;
63398;SDS011;49533;-34.520;150.798;2022-10-31T09:25:13;2.20;;;0.90;;
63398;SDS011;49533;-34.520;150.798;2022-10-31T09:27:40;0.80;;;0.60;;
63398;SDS011;49533;-34.520;150.798;2022-10-31T09:30:08;1.63;;;0.60;;
63398;SDS011;49533;-34.520;150.798;2022-10-31T09:32:36;0.90;;;0.60;;
63398;SDS011;49533;-34.520;150.798;2022-10-31T09:35:03;2.72;;;0.90;;
63398;SDS011;49533;-34.520;150.798;2022-10-31T09:37:30;0.60;;;0.40;;
63398;SDS011;49533;-34.520;150.798;2022-10-31T09:39:57;0.85;;;0.70;;
63398;SDS011;49533;-34.520;150.798;2022-10-31T09:42:37;3.83;;;0.95;;
63398;SDS011;49533;-34.520;150.798;2022-10-31T09:45:17;0.95;;;0.50;;
63398;SDS011;49533;-34.520;150.798;2022-10-31T09:47:59;2.78;;;0.60;;
63398;SDS011;49533;-34.520;150.798;2022-10-31T09:50:42;4.38;;;0.68;;
63398;SDS011;49533;-34.520;150.798;2022-10-31T09:53:27;1.08;;;0.50;;
63398;SDS011;49533;-34.520;150.798;2022-10-31T09:56:02;1.15;;;0.50;;
63398;SDS011;49533;-34.520;150.798;2022-10-31T09:58:42;1.65;;;0.50;;
63398;SDS011;49533;-34.520;150.798;2022-10-31T10:01:25;0.98;;;0.50;;
63398;SDS011;49533;-34.520;150.798;2022-10-31T10:04:19;1.02;;;0.40;;
63398;SDS011;49533;-34.520;150.798;2022-10-31T10:09:40;0.80;;;0.40;;
63398;SDS011;49533;-34.520;150.798;2022-10-31T10:12:16;0.93;;;0.45;;
63398;SDS011;49533;-34.520;150.798;2022-10-31T10:15:18;0.45;;;0.43;;
63398;SDS011;49533;-34.520;150.798;2022-10-31T10:18:01;0.73;;;0.25;;
63398;SDS011;49533;-34.520;150.798;2022-10-31T10:23:47;1.00;;;0.65;;
63398;SDS011;49533;-34.520;150.798;2022-10-31T10:26:29;1.45;;;0.52;;
63398;SDS011;49533;-34.520;150.798;2022-10-31T10:31:56;1.55;;;0.60;;
63398;SDS011;49533;-34.520;150.798;2022-10-31T10:34:30;1.27;;;0.65;;
63398;SDS011;49533;-34.520;150.798;2022-10-31T10:37:04;0.63;;;0.50;;
63398;SDS011;49533;-34.520;150.798;2022-10-31T10:39:45;1.20;;;0.63;;
63398;SDS011;49533;-34.520;150.798;2022-10-31T10:42:16;1.23;;;0.57;;
63398;SDS011;49533;-34.520;150.798;2022-10-31T10:44:55;1.38;;;0.40;;
63398;SDS011;49533;-34.520;150.798;2022-10-31T10:47:44;0.90;;;0.40;;
63398;SDS011;49533;-34.520;150.798;2022-10-31T10:50:19;1.43;;;0.70;;
63398;SDS011;49533;-34.520;150.798;2022-10-31T10:53:02;0.65;;;0.63;;
63398;SDS011;49533;-34.520;150.798;2022-10-31T10:55:59;0.70;;;0.40;;
63398;SDS011;49533;-34.520;150.798;2022-10-31T10:58:40;2.10;;;0.43;;
63398;SDS011;49533;-34.520;150.798;2022-10-31T11:01:10;0.85;;;0.50;;
63398;SDS011;49533;-34.520;150.798;2022-10-31T11:03:39;0.40;;;0.40;;
63398;SDS011;49533;-34.520;150.798;2022-10-31T11:06:18;1.75;;;0.40;;
63398;SDS011;49533;-34.520;150.798;2022-10-31T11:08:51;0.45;;;0.30;;
63398;SDS011;49533;-34.520;150.798;2022-10-31T11:14:00;4.15;;;0.40;;
63398;SDS011;49533;-34.520;150.798;2022-10-31T11:16:33;1.08;;;0.40;;
63398;SDS011;49533;-34.520;150.798;2022-10-31T11:19:06;1.17;;;0.40;;
63398;SDS011;49533;-34.520;150.798;2022-10-31T11:21:40;0.22;;;0.22;;
63398;SDS011;49533;-34.520;150.798;2022-10-31T11:24:15;1.48;;;0.52;;
63398;SDS011;49533;-34.520;150.798;2022-10-31T11:26:45;0.32;;;0.32;;
63398;SDS011;49533;-34.520;150.798;2022-10-31T11:29:15;1.35;;;0.40;;
63398;SDS011;49533;-34.520;150.798;2022-10-31T11:31:46;0.40;;;0.40;;
63398;SDS011;49533;-34.520;150.798;2022-10-31T11:34:20;0.65;;;0.40;;
63398;SDS011;49533;-34.520;150.798;2022-10-31T11:36:56;0.80;;;0.20;;
63398;SDS011;49533;-34.520;150.798;2022-10-31T11:39:29;1.83;;;0.38;;
63398;SDS011;49533;-34.520;150.798;2022-10-31T11:41:59;0.60;;;0.28;;
63398;SDS011;49533;-34.520;150.798;2022-10-31T11:44:29;2.55;;;0.52;;
63398;SDS011;49533;-34.520;150.798;2022-10-31T11:46:59;0.43;;;0.25;;
63398;SDS011;49533;-34.520;150.798;2022-10-31T11:49:30;0.40;;;0.40;;
63398;SDS011;49533;-34.520;150.798;2022-10-31T11:52:06;0.90;;;0.30;;
63398;SDS011;49533;-34.520;150.798;2022-10-31T11:54:41;1.60;;;0.60;;
63398;SDS011;49533;-34.520;150.798;2022-10-31T11:57:23;0.35;;;0.25;;
63398;SDS011;49533;-34.520;150.798;2022-10-31T11:59:54;0.45;;;0.35;;
63398;SDS011;49533;-34.520;150.798;2022-10-31T12:02:23;1.33;;;0.25;;
63398;SDS011;49533;-34.520;150.798;2022-10-31T12:04:54;0.68;;;0.30;;
63398;SDS011;49533;-34.520;150.798;2022-10-31T12:07:27;0.47;;;0.40;;
63398;SDS011;49533;-34.520;150.798;2022-10-31T12:09:54;0.77;;;0.30;;
63398;SDS011;49533;-34.520;150.798;2022-10-31T12:12:24;0.93;;;0.20;;
63398;SDS011;49533;-34.520;150.798;2022-10-31T12:15:18;0.95;;;0.35;;
63398;SDS011;49533;-34.520;150.798;2022-10-31T12:18:06;1.55;;;0.50;;
63398;SDS011;49533;-34.520;150.798;2022-10-31T12:24:03;0.30;;;0.30;;
63398;SDS011;49533;-34.520;150.798;2022-10-31T12:29:55;0.20;;;0.20;;
63398;SDS011;49533;-34.520;150.798;2022-10-31T12:32:30;0.55;;;0.40;;
63398;SDS011;49533;-34.520;150.798;2022-10-31T12:35:13;1.00;;;0.40;;
63398;SDS011;49533;-34.520;150.798;2022-10-31T12:37:59;0.45;;;0.20;;
63398;SDS011;49533;-34.520;150.798;2022-10-31T12:40:51;0.70;;;0.30;;
63398;SDS011;49533;-34.520;150.798;2022-10-31T12:43:36;0.20;;;0.20;;
63398;SDS011;49533;-34.520;150.798;2022-10-31T12:49:10;0.30;;;0.30;;
63398;SDS011;49533;-34.520;150.798;2022-10-31T12:52:19;0.20;;;0.20;;
63398;SDS011;49533;-34.520;150.798;2022-10-31T12:54:58;0.20;;;0.20;;
63398;SDS011;49533;-34.520;150.798;2022-10-31T12:57:42;1.20;;;0.40;;
63398;SDS011;49533;-34.520;150.798;2022-10-31T13:00:15;1.55;;;0.40;;
63398;SDS011;49533;-34.520;150.798;2022-10-31T13:02:49;0.47;;;0.20;;
63398;SDS011;49533;-34.520;150.798;2022-10-31T13:05:30;0.30;;;0.25;;
63398;SDS011;49533;-34.520;150.798;2022-10-31T13:08:06;0.20;;;0.20;;
63398;SDS011;49533;-34.520;150.798;2022-10-31T13:10:43;2.55;;;0.32;;
63398;SDS011;49533;-34.520;150.798;2022-10-31T13:13:18;0.20;;;0.20;;
63398;SDS011;49533;-34.520;150.798;2022-10-31T13:15:51;0.40;;;0.40;;
63398;SDS011;49533;-34.520;150.798;2022-10-31T13:18:28;0.30;;;0.30;;
63398;SDS011;49533;-34.520;150.798;2022-10-31T13:21:00;0.45;;;0.45;;
63398;SDS011;49533;-34.520;150.798;2022-10-31T13:23:33;0.17;;;0.17;;
63398;SDS011;49533;-34.520;150.798;2022-10-31T13:26:06;0.50;;;0.30;;
63398;SDS011;49533;-34.520;150.798;2022-10-31T13:28:47;0.20;;;0.20;;
63398;SDS011;49533;-34.520;150.798;2022-10-31T13:31:20;0.30;;;0.30;;
63398;SDS011;49533;-34.520;150.798;2022-10-31T13:33:50;1.02;;;0.38;;
63398;SDS011;49533;-34.520;150.798;2022-10-31T13:36:25;0.52;;;0.28;;
63398;SDS011;49533;-34.520;150.798;2022-10-31T13:39:04;0.40;;;0.22;;
63398;SDS011;49533;-34.520;150.798;2022-10-31T13:44:29;1.48;;;0.50;;
63398;SDS011;49533;-34.520;150.798;2022-10-31T13:46:57;1.05;;;0.77;;
63398;SDS011;49533;-34.520;150.798;2022-10-31T13:49:25;1.88;;;0.32;;
63398;SDS011;49533;-34.520;150.798;2022-10-31T13:52:06;0.40;;;0.40;;
63398;SDS011;49533;-34.520;150.798;2022-10-31T13:54:47;0.60;;;0.60;;
63398;SDS011;49533;-34.520;150.798;2022-10-31T13:57:30;0.77;;;0.47;;
63398;SDS011;49533;-34.520;150.798;2022-10-31T14:00:06;1.77;;;0.60;;
63398;SDS011;49533;-34.520;150.798;2022-10-31T14:02:51;1.40;;;0.57;;
63398;SDS011;49533;-34.520;150.798;2022-10-31T14:05:30;0.70;;;0.52;;
63398;SDS011;49533;-34.520;150.798;2022-10-31T14:08:00;0.50;;;0.50;;
63398;SDS011;49533;-34.520;150.798;2022-10-31T14:10:31;0.88;;;0.52;;
63398;SDS011;49533;-34.520;150.798;2022-10-31T14:13:05;1.08;;;0.57;;
63398;SDS011;49533;-34.520;150.798;2022-10-31T14:15:42;5.43;;;1.02;;
63398;SDS011;49533;-34.520;150.798;2022-10-31T14:18:23;1.65;;;0.70;;
63398;SDS011;49533;-34.520;150.798;2022-10-31T14:23:31;0.88;;;0.52;;
63398;SDS011;49533;-34.520;150.798;2022-10-31T14:26:07;1.88;;;0.45;;
63398;SDS011;49533;-34.520;150.798;2022-10-31T14:28:48;0.40;;;0.40;;
63398;SDS011;49533;-34.520;150.798;2022-10-31T14:31:26;0.95;;;0.57;;
63398;SDS011;49533;-34.520;150.798;2022-10-31T14:33:59;1.40;;;0.80;;
63398;SDS011;49533;-34.520;150.798;2022-10-31T14:36:32;0.98;;;0.60;;
63398;SDS011;49533;-34.520;150.798;2022-10-31T14:39:12;0.40;;;0.40;;
63398;SDS011;49533;-34.520;150.798;2022-10-31T14:41:54;0.90;;;0.90;;
63398;SDS011;49533;-34.520;150.798;2022-10-31T14:44:49;0.50;;;0.50;;
63398;SDS011;49533;-34.520;150.798;2022-10-31T14:47:39;1.10;;;0.45;;
63398;SDS011;49533;-34.520;150.798;2022-10-31T14:50:30;0.57;;;0.40;;
63398;SDS011;49533;-34.520;150.798;2022-10-31T14:53:05;0.93;;;0.70;;
63398;SDS011;49533;-34.520;150.798;2022-10-31T14:55:41;0.63;;;0.30;;
63398;SDS011;49533;-34.520;150.798;2022-10-31T14:58:13;1.77;;;0.38;;
63398;SDS011;49533;-34.520;150.798;2022-10-31T15:00:45;1.02;;;0.40;;
63398;SDS011;49533;-34.520;150.798;2022-10-31T15:03:14;0.45;;;0.45;;
63398;SDS011;49533;-34.520;150.798;2022-10-31T15:05:49;0.47;;;0.40;;
63398;SDS011;49533;-34.520;150.798;2022-10-31T15:08:31;0.73;;;0.50;;
63398;SDS011;49533;-34.520;150.798;2022-10-31T15:11:02;0.55;;;0.30;;
63398;SDS011;49533;-34.520;150.798;2022-10-31T15:13:40;0.50;;;0.50;;
63398;SDS011;49533;-34.520;150.798;2022-10-31T15:16:09;0.32;;;0.32;;